sensor_id;sensor_type;location;lat;lon;timestamp;P1;durP1;ratioP1;P2;durP2;ratioP2
35114;SDS011;21292;52.416;13.046;2022-07-29T00:00:20;5.45;;;2.50;;
35114;SDS011;21292;52.416;13.046;2022-07-29T00:02:48;6.55;;;2.45;;
35114;SDS011;21292;52.416;13.046;2022-07-29T00:05:16;7.22;;;2.05;;
35114;SDS011;21292;52.416;13.046;2022-07-29T00:07:44;5.05;;;2.53;;
35114;SDS011;21292;52.416;13.046;2022-07-29T00:10:12;5.63;;;2.20;;
35114;SDS011;21292;52.416;13.046;2022-07-29T00:12:40;5.55;;;2.65;;
35114;SDS011;21292;52.416;13.046;2022-07-29T00:15:09;11.55;;;2.90;;
35114;SDS011;21292;52.416;13.046;2022-07-29T00:17:37;7.72;;;2.42;;
35114;SDS011;21292;52.416;13.046;2022-07-29T00:20:06;4.30;;;2.08;;
35114;SDS011;21292;52.416;13.046;2022-07-29T00:22:36;9.30;;;3.38;;
35114;SDS011;21292;52.416;13.046;2022-07-29T00:25:05;7.05;;;2.90;;
35114;SDS011;21292;52.416;13.046;2022-07-29T00:27:33;7.78;;;2.53;;
35114;SDS011;21292;52.416;13.046;2022-07-29T00:30:02;6.32;;;2.50;;
35114;SDS011;21292;52.416;13.046;2022-07-29T00:32:32;5.78;;;2.58;;
35114;SDS011;21292;52.416;13.046;2022-07-29T00:35:00;8.60;;;2.50;;
35114;SDS011;21292;52.416;13.046;2022-07-29T00:37:46;6.40;;;2.72;;
35114;SDS011;21292;52.416;13.046;2022-07-29T00:40:14;8.90;;;2.70;;
35114;SDS011;21292;52.416;13.046;2022-07-29T00:42:42;6.53;;;2.20;;
35114;SDS011;21292;52.416;13.046;2022-07-29T00:45:11;6.28;;;2.83;;
35114;SDS011;21292;52.416;13.046;2022-07-29T00:47:41;10.43;;;2.80;;
35114;SDS011;21292;52.416;13.046;2022-07-29T00:50:09;8.18;;;3.00;;
35114;SDS011;21292;52.416;13.046;2022-07-29T00:52:39;9.13;;;2.95;;
35114;SDS011;21292;52.416;13.046;2022-07-29T00:55:09;5.80;;;3.17;;
35114;SDS011;21292;52.416;13.046;2022-07-29T00:57:38;7.20;;;3.08;;
35114;SDS011;21292;52.416;13.046;2022-07-29T01:00:08;8.55;;;3.20;;
35114;SDS011;21292;52.416;13.046;2022-07-29T01:02:37;11.18;;;2.75;;
35114;SDS011;21292;52.416;13.046;2022-07-29T01:05:07;8.90;;;2.90;;
35114;SDS011;21292;52.416;13.046;2022-07-29T01:07:35;5.70;;;3.33;;
35114;SDS011;21292;52.416;13.046;2022-07-29T01:10:04;6.32;;;3.22;;
35114;SDS011;21292;52.416;13.046;2022-07-29T01:12:35;7.20;;;3.40;;
35114;SDS011;21292;52.416;13.046;2022-07-29T01:15:05;11.13;;;3.25;;
35114;SDS011;21292;52.416;13.046;2022-07-29T01:17:36;10.18;;;2.95;;
35114;SDS011;21292;52.416;13.046;2022-07-29T01:20:22;13.68;;;4.10;;
35114;SDS011;21292;52.416;13.046;2022-07-29T01:25:58;10.00;;;3.65;;
35114;SDS011;21292;52.416;13.046;2022-07-29T01:28:40;9.85;;;3.92;;
35114;SDS011;21292;52.416;13.046;2022-07-29T01:31:18;10.35;;;4.05;;
35114;SDS011;21292;52.416;13.046;2022-07-29T01:33:55;5.75;;;3.72;;
35114;SDS011;21292;52.416;13.046;2022-07-29T01:36:27;9.25;;;3.90;;
35114;SDS011;21292;52.416;13.046;2022-07-29T01:39:04;7.38;;;3.50;;
35114;SDS011;21292;52.416;13.046;2022-07-29T01:41:34;8.77;;;3.70;;
35114;SDS011;21292;52.416;13.046;2022-07-29T01:44:09;6.47;;;3.88;;
35114;SDS011;21292;52.416;13.046;2022-07-29T01:46:42;7.28;;;4.15;;
35114;SDS011;21292;52.416;13.046;2022-07-29T01:49:15;6.93;;;3.50;;
35114;SDS011;21292;52.416;13.046;2022-07-29T01:51:46;9.18;;;3.95;;
35114;SDS011;21292;52.416;13.046;2022-07-29T01:54:18;12.15;;;4.20;;
35114;SDS011;21292;52.416;13.046;2022-07-29T01:56:49;6.25;;;4.15;;
35114;SDS011;21292;52.416;13.046;2022-07-29T01:59:20;11.80;;;4.07;;
35114;SDS011;21292;52.416;13.046;2022-07-29T02:01:48;9.27;;;4.20;;
35114;SDS011;21292;52.416;13.046;2022-07-29T02:04:20;8.77;;;4.30;;
35114;SDS011;21292;52.416;13.046;2022-07-29T02:06:57;13.00;;;4.65;;
35114;SDS011;21292;52.416;13.046;2022-07-29T02:09:28;8.95;;;4.18;;
35114;SDS011;21292;52.416;13.046;2022-07-29T02:11:58;6.57;;;4.30;;
35114;SDS011;21292;52.416;13.046;2022-07-29T02:14:30;8.73;;;4.35;;
35114;SDS011;21292;52.416;13.046;2022-07-29T02:17:00;7.45;;;3.90;;
35114;SDS011;21292;52.416;13.046;2022-07-29T02:19:30;7.22;;;4.50;;
35114;SDS011;21292;52.416;13.046;2022-07-29T02:21:59;10.90;;;4.07;;
35114;SDS011;21292;52.416;13.046;2022-07-29T02:24:28;6.47;;;4.35;;
35114;SDS011;21292;52.416;13.046;2022-07-29T02:26:57;8.32;;;3.83;;
35114;SDS011;21292;52.416;13.046;2022-07-29T02:29:26;12.05;;;4.72;;
35114;SDS011;21292;52.416;13.046;2022-07-29T02:31:57;8.15;;;4.72;;
35114;SDS011;21292;52.416;13.046;2022-07-29T02:34:25;9.32;;;4.82;;
35114;SDS011;21292;52.416;13.046;2022-07-29T02:36:55;15.05;;;4.35;;
35114;SDS011;21292;52.416;13.046;2022-07-29T02:39:24;8.73;;;4.05;;
35114;SDS011;21292;52.416;13.046;2022-07-29T02:41:52;8.65;;;4.50;;
35114;SDS011;21292;52.416;13.046;2022-07-29T02:44:23;10.38;;;4.50;;
35114;SDS011;21292;52.416;13.046;2022-07-29T02:47:02;13.73;;;4.50;;
35114;SDS011;21292;52.416;13.046;2022-07-29T02:49:36;7.72;;;4.40;;
35114;SDS011;21292;52.416;13.046;2022-07-29T02:52:06;9.38;;;3.95;;
35114;SDS011;21292;52.416;13.046;2022-07-29T02:54:37;9.90;;;4.82;;
35114;SDS011;21292;52.416;13.046;2022-07-29T02:57:09;8.93;;;4.38;;
35114;SDS011;21292;52.416;13.046;2022-07-29T02:59:40;8.48;;;4.38;;
35114;SDS011;21292;52.416;13.046;2022-07-29T03:02:12;9.43;;;4.38;;
35114;SDS011;21292;52.416;13.046;2022-07-29T03:04:41;9.77;;;4.32;;
35114;SDS011;21292;52.416;13.046;2022-07-29T03:07:10;11.63;;;4.63;;
35114;SDS011;21292;52.416;13.046;2022-07-29T03:09:40;12.55;;;5.75;;
35114;SDS011;21292;52.416;13.046;2022-07-29T03:12:09;11.23;;;4.18;;
35114;SDS011;21292;52.416;13.046;2022-07-29T03:14:38;8.20;;;4.38;;
35114;SDS011;21292;52.416;13.046;2022-07-29T03:17:06;7.47;;;4.13;;
35114;SDS011;21292;52.416;13.046;2022-07-29T03:19:36;8.75;;;4.05;;
35114;SDS011;21292;52.416;13.046;2022-07-29T03:22:04;12.85;;;4.20;;
35114;SDS011;21292;52.416;13.046;2022-07-29T03:24:33;10.95;;;4.70;;
35114;SDS011;21292;52.416;13.046;2022-07-29T03:27:01;6.95;;;4.20;;
35114;SDS011;21292;52.416;13.046;2022-07-29T03:29:31;9.18;;;4.15;;
35114;SDS011;21292;52.416;13.046;2022-07-29T03:32:01;7.90;;;3.95;;
35114;SDS011;21292;52.416;13.046;2022-07-29T03:34:36;9.48;;;4.22;;
35114;SDS011;21292;52.416;13.046;2022-07-29T03:37:05;9.45;;;4.50;;
35114;SDS011;21292;52.416;13.046;2022-07-29T03:39:35;9.63;;;4.30;;
35114;SDS011;21292;52.416;13.046;2022-07-29T03:42:05;5.78;;;3.67;;
35114;SDS011;21292;52.416;13.046;2022-07-29T03:44:35;5.95;;;3.90;;
35114;SDS011;21292;52.416;13.046;2022-07-29T03:47:04;7.28;;;4.00;;
35114;SDS011;21292;52.416;13.046;2022-07-29T03:49:34;8.57;;;5.82;;
35114;SDS011;21292;52.416;13.046;2022-07-29T03:52:05;10.17;;;4.50;;
35114;SDS011;21292;52.416;13.046;2022-07-29T03:54:33;7.70;;;4.05;;
35114;SDS011;21292;52.416;13.046;2022-07-29T03:57:02;13.60;;;4.32;;
35114;SDS011;21292;52.416;13.046;2022-07-29T03:59:32;9.52;;;4.68;;
35114;SDS011;21292;52.416;13.046;2022-07-29T04:02:01;14.05;;;4.70;;
35114;SDS011;21292;52.416;13.046;2022-07-29T04:04:32;8.50;;;4.00;;
35114;SDS011;21292;52.416;13.046;2022-07-29T04:07:01;11.82;;;5.20;;
35114;SDS011;21292;52.416;13.046;2022-07-29T04:09:30;7.03;;;3.95;;
35114;SDS011;21292;52.416;13.046;2022-07-29T04:11:58;7.88;;;4.65;;
35114;SDS011;21292;52.416;13.046;2022-07-29T04:14:30;7.85;;;3.97;;
35114;SDS011;21292;52.416;13.046;2022-07-29T04:16:58;6.82;;;3.65;;
35114;SDS011;21292;52.416;13.046;2022-07-29T04:19:26;6.38;;;3.80;;
35114;SDS011;21292;52.416;13.046;2022-07-29T04:21:54;9.20;;;3.75;;
35114;SDS011;21292;52.416;13.046;2022-07-29T04:24:24;9.15;;;4.32;;
35114;SDS011;21292;52.416;13.046;2022-07-29T04:26:52;8.52;;;3.38;;
35114;SDS011;21292;52.416;13.046;2022-07-29T04:29:20;7.15;;;3.90;;
35114;SDS011;21292;52.416;13.046;2022-07-29T04:31:48;9.40;;;4.70;;
35114;SDS011;21292;52.416;13.046;2022-07-29T04:34:16;8.65;;;4.10;;
35114;SDS011;21292;52.416;13.046;2022-07-29T04:36:45;6.68;;;4.13;;
35114;SDS011;21292;52.416;13.046;2022-07-29T04:39:13;7.90;;;4.22;;
35114;SDS011;21292;52.416;13.046;2022-07-29T04:41:49;10.68;;;3.58;;
35114;SDS011;21292;52.416;13.046;2022-07-29T04:44:22;6.47;;;3.67;;
35114;SDS011;21292;52.416;13.046;2022-07-29T04:46:55;8.52;;;3.72;;
35114;SDS011;21292;52.416;13.046;2022-07-29T04:49:23;8.88;;;4.03;;
35114;SDS011;21292;52.416;13.046;2022-07-29T04:51:51;5.57;;;3.55;;
35114;SDS011;21292;52.416;13.046;2022-07-29T04:54:20;8.80;;;3.65;;
35114;SDS011;21292;52.416;13.046;2022-07-29T04:56:48;9.00;;;3.40;;
35114;SDS011;21292;52.416;13.046;2022-07-29T04:59:17;12.15;;;3.97;;
35114;SDS011;21292;52.416;13.046;2022-07-29T05:01:45;9.23;;;3.50;;
35114;SDS011;21292;52.416;13.046;2022-07-29T05:04:13;6.22;;;3.25;;
35114;SDS011;21292;52.416;13.046;2022-07-29T05:06:42;7.32;;;3.20;;
35114;SDS011;21292;52.416;13.046;2022-07-29T05:09:10;8.88;;;3.30;;
35114;SDS011;21292;52.416;13.046;2022-07-29T05:11:38;5.15;;;3.03;;
35114;SDS011;21292;52.416;13.046;2022-07-29T05:14:07;8.80;;;3.58;;
35114;SDS011;21292;52.416;13.046;2022-07-29T05:16:35;6.60;;;3.83;;
35114;SDS011;21292;52.416;13.046;2022-07-29T05:19:03;9.55;;;3.28;;
35114;SDS011;21292;52.416;13.046;2022-07-29T05:21:35;9.38;;;3.65;;
35114;SDS011;21292;52.416;13.046;2022-07-29T05:24:03;10.18;;;3.53;;
35114;SDS011;21292;52.416;13.046;2022-07-29T05:26:31;9.55;;;4.07;;
35114;SDS011;21292;52.416;13.046;2022-07-29T05:28:59;4.05;;;3.15;;
35114;SDS011;21292;52.416;13.046;2022-07-29T05:31:29;7.10;;;3.63;;
35114;SDS011;21292;52.416;13.046;2022-07-29T05:33:57;6.50;;;3.47;;
35114;SDS011;21292;52.416;13.046;2022-07-29T05:36:25;3.70;;;2.65;;
35114;SDS011;21292;52.416;13.046;2022-07-29T05:38:53;6.07;;;3.53;;
35114;SDS011;21292;52.416;13.046;2022-07-29T05:41:21;7.32;;;3.13;;
35114;SDS011;21292;52.416;13.046;2022-07-29T05:43:50;4.88;;;2.80;;
35114;SDS011;21292;52.416;13.046;2022-07-29T05:46:18;9.05;;;3.15;;
35114;SDS011;21292;52.416;13.046;2022-07-29T05:48:48;6.05;;;2.80;;
35114;SDS011;21292;52.416;13.046;2022-07-29T05:51:16;7.43;;;3.17;;
35114;SDS011;21292;52.416;13.046;2022-07-29T05:53:44;7.28;;;3.10;;
35114;SDS011;21292;52.416;13.046;2022-07-29T05:56:12;10.55;;;3.22;;
35114;SDS011;21292;52.416;13.046;2022-07-29T05:58:41;6.93;;;2.70;;
35114;SDS011;21292;52.416;13.046;2022-07-29T06:01:09;7.60;;;3.03;;
35114;SDS011;21292;52.416;13.046;2022-07-29T06:03:37;7.32;;;2.90;;
35114;SDS011;21292;52.416;13.046;2022-07-29T06:06:06;9.38;;;2.97;;
35114;SDS011;21292;52.416;13.046;2022-07-29T06:08:35;12.32;;;3.80;;
35114;SDS011;21292;52.416;13.046;2022-07-29T06:11:04;8.40;;;3.38;;
35114;SDS011;21292;52.416;13.046;2022-07-29T06:13:32;10.35;;;3.10;;
35114;SDS011;21292;52.416;13.046;2022-07-29T06:16:00;6.57;;;3.13;;
35114;SDS011;21292;52.416;13.046;2022-07-29T06:18:28;7.07;;;3.20;;
35114;SDS011;21292;52.416;13.046;2022-07-29T06:20:56;5.97;;;3.13;;
35114;SDS011;21292;52.416;13.046;2022-07-29T06:23:26;5.75;;;2.88;;
35114;SDS011;21292;52.416;13.046;2022-07-29T06:25:54;12.65;;;3.70;;
35114;SDS011;21292;52.416;13.046;2022-07-29T06:28:22;6.47;;;2.72;;
35114;SDS011;21292;52.416;13.046;2022-07-29T06:30:50;5.88;;;2.80;;
35114;SDS011;21292;52.416;13.046;2022-07-29T06:33:18;10.73;;;2.80;;
35114;SDS011;21292;52.416;13.046;2022-07-29T06:35:46;8.32;;;3.03;;
35114;SDS011;21292;52.416;13.046;2022-07-29T06:38:20;6.18;;;3.03;;
35114;SDS011;21292;52.416;13.046;2022-07-29T06:40:59;9.98;;;3.50;;
35114;SDS011;21292;52.416;13.046;2022-07-29T06:43:28;7.45;;;3.25;;
35114;SDS011;21292;52.416;13.046;2022-07-29T06:46:20;7.18;;;3.17;;
35114;SDS011;21292;52.416;13.046;2022-07-29T06:48:49;6.95;;;3.38;;
35114;SDS011;21292;52.416;13.046;2022-07-29T06:51:19;8.07;;;2.90;;
35114;SDS011;21292;52.416;13.046;2022-07-29T06:53:49;6.78;;;2.47;;
35114;SDS011;21292;52.416;13.046;2022-07-29T06:56:30;5.57;;;2.88;;
35114;SDS011;21292;52.416;13.046;2022-07-29T06:59:05;7.18;;;3.20;;
35114;SDS011;21292;52.416;13.046;2022-07-29T07:01:34;4.15;;;2.55;;
35114;SDS011;21292;52.416;13.046;2022-07-29T07:04:03;9.00;;;2.97;;
35114;SDS011;21292;52.416;13.046;2022-07-29T07:06:31;10.07;;;3.00;;
35114;SDS011;21292;52.416;13.046;2022-07-29T07:08:59;10.18;;;2.95;;
35114;SDS011;21292;52.416;13.046;2022-07-29T07:11:27;8.15;;;2.78;;
35114;SDS011;21292;52.416;13.046;2022-07-29T07:13:57;9.88;;;3.20;;
35114;SDS011;21292;52.416;13.046;2022-07-29T07:16:29;7.25;;;2.67;;
35114;SDS011;21292;52.416;13.046;2022-07-29T07:18:58;7.93;;;2.83;;
35114;SDS011;21292;52.416;13.046;2022-07-29T07:21:26;7.45;;;2.85;;
35114;SDS011;21292;52.416;13.046;2022-07-29T07:23:56;5.13;;;2.40;;
35114;SDS011;21292;52.416;13.046;2022-07-29T07:26:25;8.40;;;2.80;;
35114;SDS011;21292;52.416;13.046;2022-07-29T07:28:53;7.57;;;2.67;;
35114;SDS011;21292;52.416;13.046;2022-07-29T07:31:23;11.75;;;3.00;;
35114;SDS011;21292;52.416;13.046;2022-07-29T07:33:51;8.85;;;3.85;;
35114;SDS011;21292;52.416;13.046;2022-07-29T07:36:20;6.60;;;3.08;;
35114;SDS011;21292;52.416;13.046;2022-07-29T07:38:48;7.63;;;2.67;;
35114;SDS011;21292;52.416;13.046;2022-07-29T07:41:17;6.03;;;2.88;;
35114;SDS011;21292;52.416;13.046;2022-07-29T07:43:45;5.40;;;2.28;;
35114;SDS011;21292;52.416;13.046;2022-07-29T07:46:14;4.25;;;2.97;;
35114;SDS011;21292;52.416;13.046;2022-07-29T07:48:43;7.97;;;2.63;;
35114;SDS011;21292;52.416;13.046;2022-07-29T07:51:11;7.95;;;2.38;;
35114;SDS011;21292;52.416;13.046;2022-07-29T07:53:39;5.57;;;2.65;;
35114;SDS011;21292;52.416;13.046;2022-07-29T07:56:08;9.20;;;3.17;;
35114;SDS011;21292;52.416;13.046;2022-07-29T07:58:38;7.72;;;3.10;;
35114;SDS011;21292;52.416;13.046;2022-07-29T08:01:06;6.90;;;2.50;;
35114;SDS011;21292;52.416;13.046;2022-07-29T08:03:34;4.80;;;2.95;;
35114;SDS011;21292;52.416;13.046;2022-07-29T08:06:04;9.10;;;2.35;;
35114;SDS011;21292;52.416;13.046;2022-07-29T08:08:32;8.60;;;2.10;;
35114;SDS011;21292;52.416;13.046;2022-07-29T08:11:00;7.85;;;3.03;;
35114;SDS011;21292;52.416;13.046;2022-07-29T08:13:35;5.70;;;2.17;;
35114;SDS011;21292;52.416;13.046;2022-07-29T08:16:04;8.57;;;2.47;;
35114;SDS011;21292;52.416;13.046;2022-07-29T08:18:39;6.43;;;3.25;;
35114;SDS011;21292;52.416;13.046;2022-07-29T08:21:09;9.48;;;2.60;;
35114;SDS011;21292;52.416;13.046;2022-07-29T08:23:41;5.30;;;2.50;;
35114;SDS011;21292;52.416;13.046;2022-07-29T08:26:24;6.28;;;2.40;;
35114;SDS011;21292;52.416;13.046;2022-07-29T08:28:52;7.95;;;2.63;;
35114;SDS011;21292;52.416;13.046;2022-07-29T08:31:20;12.15;;;2.60;;
35114;SDS011;21292;52.416;13.046;2022-07-29T08:33:48;5.78;;;2.67;;
35114;SDS011;21292;52.416;13.046;2022-07-29T08:36:18;5.13;;;2.30;;
35114;SDS011;21292;52.416;13.046;2022-07-29T08:38:47;3.95;;;2.10;;
35114;SDS011;21292;52.416;13.046;2022-07-29T08:41:16;5.53;;;2.08;;
35114;SDS011;21292;52.416;13.046;2022-07-29T08:43:45;4.57;;;2.70;;
35114;SDS011;21292;52.416;13.046;2022-07-29T08:46:14;14.60;;;2.25;;
35114;SDS011;21292;52.416;13.046;2022-07-29T08:48:42;3.65;;;1.77;;
35114;SDS011;21292;52.416;13.046;2022-07-29T08:51:12;7.20;;;2.33;;
35114;SDS011;21292;52.416;13.046;2022-07-29T08:53:43;4.30;;;1.98;;
35114;SDS011;21292;52.416;13.046;2022-07-29T08:58:43;3.25;;;1.77;;
35114;SDS011;21292;52.416;13.046;2022-07-29T09:01:21;4.35;;;1.85;;
35114;SDS011;21292;52.416;13.046;2022-07-29T09:04:10;3.17;;;1.88;;
35114;SDS011;21292;52.416;13.046;2022-07-29T09:06:39;7.25;;;1.73;;
35114;SDS011;21292;52.416;13.046;2022-07-29T09:09:11;4.20;;;1.88;;
35114;SDS011;21292;52.416;13.046;2022-07-29T09:11:41;4.75;;;1.83;;
35114;SDS011;21292;52.416;13.046;2022-07-29T09:14:10;7.47;;;1.67;;
35114;SDS011;21292;52.416;13.046;2022-07-29T09:16:46;4.60;;;1.90;;
35114;SDS011;21292;52.416;13.046;2022-07-29T09:19:23;6.25;;;1.85;;
35114;SDS011;21292;52.416;13.046;2022-07-29T09:21:52;3.97;;;2.10;;
35114;SDS011;21292;52.416;13.046;2022-07-29T09:24:41;5.55;;;1.92;;
35114;SDS011;21292;52.416;13.046;2022-07-29T09:27:11;3.80;;;1.80;;
35114;SDS011;21292;52.416;13.046;2022-07-29T09:29:46;5.32;;;2.10;;
35114;SDS011;21292;52.416;13.046;2022-07-29T09:32:15;8.23;;;2.10;;
35114;SDS011;21292;52.416;13.046;2022-07-29T09:34:43;5.93;;;1.73;;
35114;SDS011;21292;52.416;13.046;2022-07-29T09:37:11;5.45;;;1.67;;
35114;SDS011;21292;52.416;13.046;2022-07-29T09:39:40;4.65;;;1.58;;
35114;SDS011;21292;52.416;13.046;2022-07-29T09:42:12;8.15;;;2.10;;
35114;SDS011;21292;52.416;13.046;2022-07-29T09:44:43;6.15;;;2.00;;
35114;SDS011;21292;52.416;13.046;2022-07-29T09:47:12;3.83;;;1.70;;
35114;SDS011;21292;52.416;13.046;2022-07-29T09:49:50;2.65;;;1.48;;
35114;SDS011;21292;52.416;13.046;2022-07-29T09:52:20;5.93;;;1.92;;
35114;SDS011;21292;52.416;13.046;2022-07-29T09:54:49;20.38;;;3.17;;
35114;SDS011;21292;52.416;13.046;2022-07-29T09:57:21;1.50;;;1.40;;
35114;SDS011;21292;52.416;13.046;2022-07-29T09:59:57;5.00;;;1.70;;
35114;SDS011;21292;52.416;13.046;2022-07-29T10:02:29;3.67;;;1.80;;
35114;SDS011;21292;52.416;13.046;2022-07-29T10:04:58;2.60;;;1.83;;
35114;SDS011;21292;52.416;13.046;2022-07-29T10:07:28;4.22;;;1.88;;
35114;SDS011;21292;52.416;13.046;2022-07-29T10:10:21;4.35;;;1.88;;
35114;SDS011;21292;52.416;13.046;2022-07-29T10:12:50;6.78;;;2.15;;
35114;SDS011;21292;52.416;13.046;2022-07-29T10:15:21;5.07;;;1.80;;
35114;SDS011;21292;52.416;13.046;2022-07-29T10:17:50;3.22;;;1.52;;
35114;SDS011;21292;52.416;13.046;2022-07-29T10:20:18;5.93;;;1.83;;
35114;SDS011;21292;52.416;13.046;2022-07-29T10:22:48;6.05;;;2.42;;
35114;SDS011;21292;52.416;13.046;2022-07-29T10:25:20;10.33;;;2.80;;
35114;SDS011;21292;52.416;13.046;2022-07-29T10:27:50;6.25;;;1.98;;
35114;SDS011;21292;52.416;13.046;2022-07-29T10:30:19;4.50;;;1.85;;
35114;SDS011;21292;52.416;13.046;2022-07-29T10:32:51;5.55;;;1.35;;
35114;SDS011;21292;52.416;13.046;2022-07-29T10:35:31;5.15;;;2.10;;
35114;SDS011;21292;52.416;13.046;2022-07-29T10:38:18;5.78;;;1.98;;
35114;SDS011;21292;52.416;13.046;2022-07-29T10:41:00;3.85;;;2.22;;
35114;SDS011;21292;52.416;13.046;2022-07-29T10:43:52;5.18;;;1.80;;
35114;SDS011;21292;52.416;13.046;2022-07-29T10:46:22;4.53;;;1.45;;
35114;SDS011;21292;52.416;13.046;2022-07-29T10:49:04;7.40;;;1.67;;
35114;SDS011;21292;52.416;13.046;2022-07-29T10:54:18;4.93;;;1.92;;
35114;SDS011;21292;52.416;13.046;2022-07-29T10:56:48;6.72;;;2.78;;
35114;SDS011;21292;52.416;13.046;2022-07-29T10:59:22;3.15;;;2.08;;
35114;SDS011;21292;52.416;13.046;2022-07-29T11:01:51;6.65;;;2.03;;
35114;SDS011;21292;52.416;13.046;2022-07-29T11:04:58;4.63;;;1.67;;
35114;SDS011;21292;52.416;13.046;2022-07-29T11:07:27;7.45;;;1.70;;
35114;SDS011;21292;52.416;13.046;2022-07-29T11:10:22;5.75;;;1.98;;
35114;SDS011;21292;52.416;13.046;2022-07-29T11:12:58;4.72;;;2.10;;
35114;SDS011;21292;52.416;13.046;2022-07-29T11:15:26;4.82;;;2.00;;
35114;SDS011;21292;52.416;13.046;2022-07-29T11:18:04;1.83;;;1.50;;
35114;SDS011;21292;52.416;13.046;2022-07-29T11:20:41;5.05;;;1.65;;
35114;SDS011;21292;52.416;13.046;2022-07-29T11:23:18;4.38;;;2.28;;
35114;SDS011;21292;52.416;13.046;2022-07-29T11:28:50;5.95;;;1.70;;
35114;SDS011;21292;52.416;13.046;2022-07-29T11:31:31;4.55;;;1.60;;
35114;SDS011;21292;52.416;13.046;2022-07-29T11:34:17;2.47;;;1.80;;
35114;SDS011;21292;52.416;13.046;2022-07-29T11:42:52;3.08;;;2.00;;
35114;SDS011;21292;52.416;13.046;2022-07-29T11:45:26;4.35;;;1.90;;
35114;SDS011;21292;52.416;13.046;2022-07-29T11:48:16;5.05;;;2.30;;
35114;SDS011;21292;52.416;13.046;2022-07-29T11:51:08;3.58;;;1.73;;
35114;SDS011;21292;52.416;13.046;2022-07-29T11:53:39;5.80;;;2.00;;
35114;SDS011;21292;52.416;13.046;2022-07-29T11:56:07;3.20;;;2.33;;
35114;SDS011;21292;52.416;13.046;2022-07-29T11:58:37;4.18;;;2.33;;
35114;SDS011;21292;52.416;13.046;2022-07-29T12:01:07;9.27;;;3.05;;
35114;SDS011;21292;52.416;13.046;2022-07-29T12:03:40;9.23;;;2.40;;
35114;SDS011;21292;52.416;13.046;2022-07-29T12:06:11;4.95;;;2.38;;
35114;SDS011;21292;52.416;13.046;2022-07-29T12:08:41;6.35;;;2.20;;
35114;SDS011;21292;52.416;13.046;2022-07-29T12:11:17;4.95;;;1.85;;
35114;SDS011;21292;52.416;13.046;2022-07-29T12:13:48;7.95;;;2.40;;
35114;SDS011;21292;52.416;13.046;2022-07-29T12:16:18;3.88;;;2.35;;
35114;SDS011;21292;52.416;13.046;2022-07-29T12:18:55;5.15;;;2.47;;
35114;SDS011;21292;52.416;13.046;2022-07-29T12:21:25;2.95;;;2.40;;
35114;SDS011;21292;52.416;13.046;2022-07-29T12:23:55;5.55;;;2.22;;
35114;SDS011;21292;52.416;13.046;2022-07-29T12:26:34;4.65;;;2.15;;
35114;SDS011;21292;52.416;13.046;2022-07-29T12:29:02;5.88;;;2.22;;
35114;SDS011;21292;52.416;13.046;2022-07-29T12:31:42;5.30;;;2.55;;
35114;SDS011;21292;52.416;13.046;2022-07-29T12:34:11;3.40;;;2.33;;
35114;SDS011;21292;52.416;13.046;2022-07-29T12:36:40;6.65;;;2.90;;
35114;SDS011;21292;52.416;13.046;2022-07-29T12:39:09;5.47;;;2.90;;
35114;SDS011;21292;52.416;13.046;2022-07-29T12:41:38;2.78;;;2.10;;
35114;SDS011;21292;52.416;13.046;2022-07-29T12:44:06;5.70;;;2.25;;
35114;SDS011;21292;52.416;13.046;2022-07-29T12:46:34;7.18;;;3.13;;
35114;SDS011;21292;52.416;13.046;2022-07-29T12:49:03;6.72;;;2.47;;
35114;SDS011;21292;52.416;13.046;2022-07-29T12:51:32;5.63;;;2.33;;
35114;SDS011;21292;52.416;13.046;2022-07-29T12:54:04;3.70;;;2.80;;
35114;SDS011;21292;52.416;13.046;2022-07-29T12:56:33;4.82;;;2.35;;
35114;SDS011;21292;52.416;13.046;2022-07-29T12:59:11;4.72;;;2.50;;
35114;SDS011;21292;52.416;13.046;2022-07-29T13:01:40;5.95;;;2.25;;
35114;SDS011;21292;52.416;13.046;2022-07-29T13:04:10;3.95;;;2.47;;
35114;SDS011;21292;52.416;13.046;2022-07-29T13:06:39;10.55;;;3.08;;
35114;SDS011;21292;52.416;13.046;2022-07-29T13:09:12;4.60;;;2.60;;
35114;SDS011;21292;52.416;13.046;2022-07-29T13:11:41;8.50;;;2.70;;
35114;SDS011;21292;52.416;13.046;2022-07-29T13:14:20;3.13;;;2.50;;
35114;SDS011;21292;52.416;13.046;2022-07-29T13:17:01;6.53;;;2.97;;
35114;SDS011;21292;52.416;13.046;2022-07-29T13:19:33;3.42;;;2.80;;
35114;SDS011;21292;52.416;13.046;2022-07-29T13:22:03;5.65;;;2.75;;
35114;SDS011;21292;52.416;13.046;2022-07-29T13:24:31;7.68;;;2.90;;
35114;SDS011;21292;52.416;13.046;2022-07-29T13:26:59;4.55;;;2.88;;
35114;SDS011;21292;52.416;13.046;2022-07-29T13:29:31;4.68;;;3.00;;
35114;SDS011;21292;52.416;13.046;2022-07-29T13:31:59;6.90;;;2.90;;
35114;SDS011;21292;52.416;13.046;2022-07-29T13:34:27;7.45;;;3.13;;
35114;SDS011;21292;52.416;13.046;2022-07-29T13:36:57;5.53;;;2.88;;
35114;SDS011;21292;52.416;13.046;2022-07-29T13:39:25;4.60;;;2.97;;
35114;SDS011;21292;52.416;13.046;2022-07-29T13:41:53;3.95;;;2.42;;
35114;SDS011;21292;52.416;13.046;2022-07-29T13:44:23;6.93;;;2.75;;
35114;SDS011;21292;52.416;13.046;2022-07-29T13:46:51;8.60;;;3.10;;
35114;SDS011;21292;52.416;13.046;2022-07-29T13:49:19;4.60;;;3.38;;
35114;SDS011;21292;52.416;13.046;2022-07-29T13:51:47;6.53;;;2.80;;
35114;SDS011;21292;52.416;13.046;2022-07-29T13:54:16;5.15;;;2.72;;
35114;SDS011;21292;52.416;13.046;2022-07-29T13:56:44;5.63;;;3.08;;
35114;SDS011;21292;52.416;13.046;2022-07-29T13:59:13;4.97;;;2.95;;
35114;SDS011;21292;52.416;13.046;2022-07-29T14:01:41;5.00;;;2.78;;
35114;SDS011;21292;52.416;13.046;2022-07-29T14:04:11;5.40;;;2.90;;
35114;SDS011;21292;52.416;13.046;2022-07-29T14:06:39;4.65;;;2.38;;
35114;SDS011;21292;52.416;13.046;2022-07-29T14:09:07;4.28;;;2.50;;
35114;SDS011;21292;52.416;13.046;2022-07-29T14:11:37;6.60;;;2.75;;
35114;SDS011;21292;52.416;13.046;2022-07-29T14:14:06;6.45;;;3.10;;
35114;SDS011;21292;52.416;13.046;2022-07-29T14:16:34;7.85;;;3.15;;
35114;SDS011;21292;52.416;13.046;2022-07-29T14:19:08;5.78;;;3.45;;
35114;SDS011;21292;52.416;13.046;2022-07-29T14:21:37;5.05;;;3.25;;
35114;SDS011;21292;52.416;13.046;2022-07-29T14:24:05;4.13;;;2.75;;
35114;SDS011;21292;52.416;13.046;2022-07-29T14:26:45;9.18;;;2.85;;
35114;SDS011;21292;52.416;13.046;2022-07-29T14:29:13;6.65;;;3.25;;
35114;SDS011;21292;52.416;13.046;2022-07-29T14:31:41;4.30;;;2.40;;
35114;SDS011;21292;52.416;13.046;2022-07-29T14:34:09;3.70;;;2.95;;
35114;SDS011;21292;52.416;13.046;2022-07-29T14:36:37;5.47;;;2.70;;
35114;SDS011;21292;52.416;13.046;2022-07-29T14:39:05;5.68;;;2.70;;
35114;SDS011;21292;52.416;13.046;2022-07-29T14:41:33;5.38;;;2.30;;
35114;SDS011;21292;52.416;13.046;2022-07-29T14:44:03;7.00;;;3.10;;
35114;SDS011;21292;52.416;13.046;2022-07-29T14:46:31;8.15;;;3.03;;
35114;SDS011;21292;52.416;13.046;2022-07-29T14:48:59;8.02;;;2.83;;
35114;SDS011;21292;52.416;13.046;2022-07-29T14:51:27;4.70;;;2.55;;
35114;SDS011;21292;52.416;13.046;2022-07-29T14:53:58;4.65;;;3.20;;
35114;SDS011;21292;52.416;13.046;2022-07-29T14:56:26;6.60;;;3.17;;
35114;SDS011;21292;52.416;13.046;2022-07-29T14:59:14;5.82;;;2.83;;
35114;SDS011;21292;52.416;13.046;2022-07-29T15:01:42;5.93;;;3.00;;
35114;SDS011;21292;52.416;13.046;2022-07-29T15:04:10;5.38;;;2.45;;
35114;SDS011;21292;52.416;13.046;2022-07-29T15:06:38;8.13;;;2.78;;
35114;SDS011;21292;52.416;13.046;2022-07-29T15:09:06;4.40;;;2.63;;
35114;SDS011;21292;52.416;13.046;2022-07-29T15:11:34;8.32;;;2.55;;